Time;durP1;ratioP1;P1;durP2;ratioP2;P2;SDS_P1;SDS_P2;PMS_P1;PMS_P2;Temp;Humidity;BMP_temperature;BMP_pressure;BME280_temperature;BME280_humidity;BME280_pressure;Samples;Min_cycle;Max_cycle;Signal;HPM_P1;HPM_P2
2022/08/04 00:03:18;;;;;;;3.70;3.00;;;26.50;55.70;;;;;;221194;1265;22539;-59
2022/08/04 00:08:34;;;;;;;4.50;2.70;;;26.60;55.80;;;;;;221304;1265;24377;-56
2022/08/04 00:13:38;;;;;;;3.50;2.80;;;26.60;55.80;;;;;;221162;1265;22528;-54
2022/08/04 00:19:16;;;;;;;3.00;2.70;;;26.60;55.80;;;;;;221073;1265;22573;-55
2022/08/04 00:24:20;;;;;;;3.00;2.60;;;26.50;55.80;;;;;;221193;1265;24283;-62
2022/08/04 00:29:28;;;;;;;3.50;3.00;;;26.50;55.80;;;;;;221222;1265;23934;-56
2022/08/04 00:34:33;;;;;;;3.30;3.00;;;26.50;56.10;;;;;;221105;1265;22531;-57
2022/08/04 00:39:37;;;;;;;4.90;3.00;;;26.50;55.80;;;;;;221142;1265;24126;-53
2022/08/04 00:45:07;;;;;;;3.40;2.90;;;26.50;56.10;;;;;;221369;1264;22535;-56
2022/08/04 00:50:17;;;;;;;3.20;2.90;;;26.50;55.80;;;;;;220975;1265;22583;-57
2022/08/04 00:55:41;;;;;;;3.90;2.70;;;26.50;55.80;;;;;;221138;1265;24939;-55
2022/08/04 01:00:59;;;;;;;4.00;2.80;;;26.40;55.80;;;;;;221098;1265;22619;-54
2022/08/04 01:06:14;;;;;;;3.10;2.70;;;26.50;55.90;;;;;;221364;1265;24284;-57
2022/08/04 01:11:35;;;;;;;3.60;3.10;;;26.50;55.90;;;;;;221153;1265;26493;-57
2022/08/04 01:17:09;;;;;;;3.30;2.80;;;26.50;55.90;;;;;;221321;1265;25328;-56
2022/08/04 01:22:28;;;;;;;3.30;2.90;;;26.40;55.80;;;;;;221257;1265;22543;-56
2022/08/04 01:27:47;;;;;;;3.30;2.90;;;26.40;55.90;;;;;;221320;1265;22571;-55
2022/08/04 01:32:56;;;;;;;3.60;2.90;;;26.40;56.00;;;;;;221547;1265;22554;-57
2022/08/04 01:38:25;;;;;;;3.30;3.00;;;26.40;55.90;;;;;;221266;1265;26517;-54
2022/08/04 01:43:29;;;;;;;3.80;3.10;;;26.40;55.70;;;;;;221096;1265;23042;-55
2022/08/04 01:48:33;;;;;;;3.80;3.30;;;26.40;56.00;;;;;;221445;1265;22560;-56
2022/08/04 01:53:38;;;;;;;7.50;3.30;;;26.40;56.60;;;;;;221261;1265;22609;-56
2022/08/04 01:58:40;;;;;;;3.90;3.10;;;26.40;56.10;;;;;;221273;1265;24747;-55
2022/08/04 02:03:46;;;;;;;3.80;3.00;;;26.40;56.10;;;;;;220901;1265;22544;-57
2022/08/04 02:09:29;;;;;;;3.90;3.20;;;26.40;56.10;;;;;;221024;1264;24316;-58
2022/08/04 02:14:46;;;;;;;3.40;3.10;;;26.40;56.10;;;;;;221240;1262;22664;-57
2022/08/04 02:20:12;;;;;;;3.20;2.90;;;26.40;56.10;;;;;;221266;1265;24427;-52
2022/08/04 02:25:24;;;;;;;4.10;3.20;;;26.30;56.40;;;;;;221199;1265;22561;-55
2022/08/04 02:31:03;;;;;;;5.30;3.30;;;26.30;56.10;;;;;;221126;1265;22697;-57
2022/08/04 02:36:12;;;;;;;4.00;3.30;;;26.30;56.10;;;;;;221303;1265;22542;-54
2022/08/04 02:41:16;;;;;;;3.50;3.10;;;26.30;56.10;;;;;;221178;1265;25235;-56
2022/08/04 02:46:20;;;;;;;3.30;3.00;;;26.30;56.10;;;;;;221272;1265;25351;-57
2022/08/04 02:51:31;;;;;;;3.40;2.90;;;26.30;56.00;;;;;;221174;1265;22684;-56
2022/08/04 02:56:36;;;;;;;3.50;3.00;;;26.30;56.00;;;;;;221269;1265;25349;-58
2022/08/04 03:01:41;;;;;;;3.90;3.20;;;26.40;56.50;;;;;;221311;1265;22542;-54
2022/08/04 03:07:23;;;;;;;3.50;3.10;;;26.30;56.10;;;;;;221165;1265;22541;-55
2022/08/04 03:12:47;;;;;;;4.00;3.40;;;26.30;56.10;;;;;;221050;1265;22564;-56
2022/08/04 03:18:13;;;;;;;6.50;3.20;;;26.30;56.20;;;;;;221069;1265;22516;-57
2022/08/04 03:23:57;;;;;;;4.90;3.30;;;26.30;56.10;;;;;;221307;1265;26555;-55
2022/08/04 03:29:21;;;;;;;3.50;3.20;;;26.30;55.70;;;;;;221179;1262;25245;-55
2022/08/04 03:35:16;;;;;;;5.40;3.20;;;26.30;56.10;;;;;;221261;1265;25247;-54
2022/08/04 03:40:53;;;;;;;3.70;3.20;;;26.30;56.10;;;;;;221043;1265;22575;-56
2022/08/04 03:46:28;;;;;;;3.60;3.10;;;26.30;56.20;;;;;;221256;1262;22549;-58
2022/08/04 03:57:23;;;;;;;5.30;3.20;;;26.30;56.10;;;;;;221196;1265;22691;-55
2022/08/04 04:03:09;;;;;;;4.00;3.50;;;26.30;56.40;;;;;;221190;1265;25347;-56
2022/08/04 04:08:17;;;;;;;5.40;3.40;;;26.20;56.10;;;;;;220645;1262;24030;-56
2022/08/04 04:13:49;;;;;;;4.00;3.60;;;26.30;56.40;;;;;;221034;1263;24165;-55
2022/08/04 04:19:21;;;;;;;4.00;3.00;;;26.30;56.20;;;;;;221323;1262;22780;-56
2022/08/04 04:24:32;;;;;;;3.80;3.30;;;26.20;56.40;;;;;;221517;1262;24192;-57
2022/08/04 04:29:44;;;;;;;4.00;3.60;;;26.20;56.00;;;;;;221646;1262;22811;-58
2022/08/04 04:34:55;;;;;;;3.80;3.40;;;26.20;56.10;;;;;;221391;1262;25356;-55
2022/08/04 04:40:09;;;;;;;3.90;3.00;;;26.20;56.10;;;;;;221241;1265;22636;-57
2022/08/04 04:45:20;;;;;;;3.30;3.00;;;26.20;56.10;;;;;;221313;1265;25244;-56
2022/08/04 04:50:48;;;;;;;3.70;3.30;;;26.20;56.10;;;;;;221118;1265;25235;-56
2022/08/04 04:56:31;;;;;;;4.20;3.30;;;26.20;55.50;;;;;;220809;1262;456459;-57
2022/08/04 05:02:11;;;;;;;4.60;3.50;;;26.30;56.30;;;;;;220774;1265;22688;-56
2022/08/04 05:07:44;;;;;;;3.60;3.10;;;26.30;56.10;;;;;;221329;1262;25567;-56
2022/08/04 05:13:02;;;;;;;4.40;3.10;;;26.20;56.30;;;;;;221155;1265;22682;-57
2022/08/04 05:18:27;;;;;;;5.40;3.40;;;26.30;56.10;;;;;;221308;1265;22537;-54
2022/08/04 05:23:32;;;;;;;4.00;3.40;;;26.30;56.10;;;;;;221480;1265;23905;-57
2022/08/04 05:28:40;;;;;;;4.00;3.50;;;26.30;56.40;;;;;;221255;1265;25483;-54
2022/08/04 05:33:54;;;;;;;4.80;3.50;;;26.20;56.00;;;;;;221298;1262;22534;-60
2022/08/04 05:38:59;;;;;;;5.10;3.60;;;26.20;56.00;;;;;;221846;1261;25463;-56
2022/08/04 05:44:03;;;;;;;4.20;3.50;;;26.30;55.90;;;;;;221560;1261;22755;-56
2022/08/04 05:49:08;;;;;;;3.30;3.00;;;26.30;55.90;;;;;;221662;1262;27667;-57
2022/08/04 05:54:13;;;;;;;3.90;3.50;;;26.30;56.30;;;;;;221548;1262;24420;-55
2022/08/04 05:59:17;;;;;;;3.40;3.10;;;26.30;55.90;;;;;;221546;1261;22559;-55
2022/08/04 06:04:24;;;;;;;4.70;3.20;;;26.30;55.90;;;;;;221936;1262;25387;-56
2022/08/04 06:09:27;;;;;;;4.00;3.50;;;26.30;55.90;;;;;;221630;1262;25379;-54
2022/08/04 06:14:36;;;;;;;4.30;3.90;;;26.30;56.30;;;;;;221733;1262;24262;-55
2022/08/04 06:19:43;;;;;;;4.50;3.80;;;26.30;56.00;;;;;;221281;1262;24504;-59
2022/08/04 06:25:09;;;;;;;4.30;3.80;;;26.30;55.90;;;;;;221397;1262;24280;-56
2022/08/04 06:30:13;;;;;;;5.00;3.40;;;26.30;57.30;;;;;;221562;1262;23074;-54
2022/08/04 06:35:21;;;;;;;4.00;3.40;;;26.40;56.80;;;;;;221222;1265;25317;-55
2022/08/04 06:40:26;;;;;;;3.80;3.40;;;26.40;56.90;;;;;;221180;1265;22594;-55
2022/08/04 06:45:38;;;;;;;10.20;4.60;;;26.40;56.70;;;;;;221028;1265;24240;-53
2022/08/04 06:50:46;;;;;;;4.30;3.40;;;26.40;56.50;;;;;;221221;1265;23965;-53
2022/08/04 06:56:09;;;;;;;4.40;3.50;;;26.40;56.40;;;;;;221291;1262;22558;-56
2022/08/04 07:01:16;;;;;;;4.00;3.50;;;26.50;56.40;;;;;;221192;1262;25247;-50
2022/08/04 07:06:20;;;;;;;4.50;3.90;;;26.50;56.40;;;;;;221352;1262;22646;-54
2022/08/04 07:11:24;;;;;;;6.60;3.60;;;26.50;56.80;;;;;;221635;1261;24788;-56
2022/08/04 07:16:49;;;;;;;4.60;3.70;;;26.50;56.50;;;;;;221306;1262;24276;-56
2022/08/04 07:21:52;;;;;;;4.00;3.60;;;26.50;56.50;;;;;;220991;1265;23935;-52
2022/08/04 07:27:16;;;;;;;5.30;4.10;;;26.50;56.80;;;;;;221104;1262;25314;-52
2022/08/04 07:32:22;;;;;;;6.20;4.30;;;26.50;56.80;;;;;;221003;1265;26482;-54
2022/08/04 07:37:29;;;;;;;6.00;4.00;;;26.50;56.70;;;;;;221135;1262;22852;-55
2022/08/04 07:42:48;;;;;;;5.90;3.60;;;26.60;57.00;;;;;;221291;1262;22554;-56
2022/08/04 07:47:50;;;;;;;4.30;3.80;;;26.50;56.60;;;;;;221432;1265;22700;-57
2022/08/04 07:53:08;;;;;;;4.60;3.80;;;26.60;56.60;;;;;;221163;1263;24427;-54
2022/08/04 07:58:31;;;;;;;4.70;3.50;;;26.50;56.50;;;;;;221075;1265;23181;-54
2022/08/04 08:03:36;;;;;;;4.20;3.40;;;26.60;56.70;;;;;;221303;1265;22491;-56
2022/08/04 08:08:39;;;;;;;4.90;3.90;;;26.60;56.90;;;;;;220942;1265;22717;-51
2022/08/04 08:13:44;;;;;;;4.40;3.70;;;26.60;57.10;;;;;;221097;1262;22985;-59
2022/08/04 08:18:46;;;;;;;4.50;3.70;;;26.70;56.70;;;;;;221491;1262;22532;-55
2022/08/04 08:23:51;;;;;;;4.10;3.70;;;26.70;56.70;;;;;;221348;1262;24083;-56
2022/08/04 08:28:57;;;;;;;4.40;3.90;;;26.70;57.00;;;;;;221324;1262;24268;-55
2022/08/04 08:34:00;;;;;;;4.10;3.70;;;26.70;56.60;;;;;;221093;1265;22553;-52
2022/08/04 08:39:24;;;;;;;4.00;3.60;;;26.70;56.60;;;;;;221249;1265;22525;-55
2022/08/04 08:44:29;;;;;;;4.10;3.60;;;26.70;56.70;;;;;;221480;1262;25246;-54
2022/08/04 08:50:14;;;;;;;3.90;3.50;;;26.70;56.40;;;;;;221134;1265;25270;-52
2022/08/04 08:55:25;;;;;;;4.60;4.00;;;26.70;56.80;;;;;;220766;1265;22611;-56
2022/08/04 09:00:52;;;;;;;4.70;4.00;;;26.80;56.60;;;;;;221057;1265;25242;-54
2022/08/04 09:06:11;;;;;;;7.00;4.20;;;26.80;56.50;;;;;;221354;1262;22563;-55
2022/08/04 09:11:19;;;;;;;4.30;3.90;;;26.80;56.50;;;;;;221472;1261;22538;-55
2022/08/04 09:16:27;;;;;;;7.30;4.10;;;26.80;56.70;;;;;;221647;1262;22541;-54
2022/08/04 09:21:50;;;;;;;5.00;4.20;;;26.80;56.50;;;;;;221286;1262;22529;-55
2022/08/04 09:27:10;;;;;;;5.00;3.60;;;26.80;56.30;;;;;;221527;1262;25235;-54
2022/08/04 09:32:21;;;;;;;4.60;3.80;;;26.50;55.00;;;;;;221461;1262;25344;-52
2022/08/04 09:38:11;;;;;;;4.10;3.70;;;26.20;56.20;;;;;;221566;1262;24265;-53
2022/08/04 09:43:25;;;;;;;3.90;3.50;;;26.20;57.70;;;;;;220591;1265;22847;-49
2022/08/04 09:49:01;;;;;;;4.60;3.50;;;26.10;58.00;;;;;;220966;1262;22525;-53
2022/08/04 09:54:13;;;;;;;5.40;3.60;;;26.00;60.10;;;;;;221137;1262;24297;-53
2022/08/04 10:00:03;;;;;;;5.50;3.80;;;25.90;60.20;;;;;;221282;1262;22544;-54
2022/08/04 10:05:19;;;;;;;4.60;3.50;;;25.90;60.00;;;;;;221359;1262;25362;-53
2022/08/04 10:10:34;;;;;;;5.80;3.90;;;25.90;60.00;;;;;;221379;1263;22910;-55
2022/08/04 10:16:06;;;;;;;3.90;3.50;;;25.80;58.80;;;;;;221265;1262;24293;-52
2022/08/04 10:21:52;;;;;;;4.30;3.40;;;25.70;56.20;;;;;;221297;1265;22561;-52
2022/08/04 10:27:14;;;;;;;6.50;4.00;;;25.70;56.20;;;;;;221412;1262;23364;-53
2022/08/04 10:32:22;;;;;;;5.10;3.90;;;25.70;56.10;;;;;;221098;1265;22554;-51
2022/08/04 10:37:31;;;;;;;4.30;3.90;;;25.70;56.60;;;;;;221116;1265;24360;-52
2022/08/04 10:43:02;;;;;;;4.20;3.40;;;25.70;57.90;;;;;;221578;1262;25298;-53
2022/08/04 10:48:18;;;;;;;4.10;3.70;;;25.70;59.80;;;;;;221262;1262;25296;-54
2022/08/04 10:53:37;;;;;;;4.00;3.60;;;25.70;59.50;;;;;;221510;1262;22525;-52
2022/08/04 10:58:48;;;;;;;4.10;3.40;;;25.70;59.50;;;;;;221429;1262;22681;-53
2022/08/04 11:04:00;;;;;;;4.10;3.70;;;25.60;59.00;;;;;;221631;1262;22683;-54
2022/08/04 11:09:04;;;;;;;3.90;3.50;;;25.70;56.30;;;;;;221457;1261;24210;-53
2022/08/04 11:14:45;;;;;;;4.40;3.90;;;25.70;56.40;;;;;;221482;1262;22528;-55
2022/08/04 11:20:03;;;;;;;4.50;4.10;;;25.70;57.30;;;;;;221472;1262;24378;-56
2022/08/04 11:25:29;;;;;;;3.80;3.40;;;25.70;57.60;;;;;;221385;1262;22602;-54
2022/08/04 11:30:40;;;;;;;4.10;3.40;;;26.00;56.80;;;;;;221496;1262;22555;-52
2022/08/04 11:35:49;;;;;;;3.80;3.30;;;26.30;56.20;;;;;;221743;1262;24210;-54
2022/08/04 11:41:03;;;;;;;4.30;3.90;;;26.50;55.60;;;;;;221744;1262;24351;-52
2022/08/04 11:46:14;;;;;;;4.30;3.90;;;26.60;55.40;;;;;;221695;1262;22544;-54
2022/08/04 11:51:18;;;;;;;5.20;3.70;;;26.70;55.50;;;;;;221462;1262;22546;-53
2022/08/04 11:56:20;;;;;;;4.20;3.50;;;26.80;55.20;;;;;;221687;1262;23838;-55
2022/08/04 12:02:06;;;;;;;4.20;3.50;;;26.90;55.20;;;;;;221556;1262;22566;-53
2022/08/04 12:07:50;;;;;;;4.10;3.70;;;26.90;54.90;;;;;;221296;1262;22532;-55
2022/08/04 12:13:19;;;;;;;3.70;3.40;;;27.00;55.10;;;;;;221400;1262;22528;-54
2022/08/04 12:18:26;;;;;;;4.20;3.70;;;27.00;54.90;;;;;;221338;1262;26608;-55
2022/08/04 12:23:34;;;;;;;4.30;3.70;;;27.00;55.00;;;;;;221343;1262;25234;-53
2022/08/04 12:28:43;;;;;;;4.20;3.70;;;27.10;55.20;;;;;;221398;1262;25327;-55
2022/08/04 12:34:16;;;;;;;5.50;4.40;;;27.10;55.50;;;;;;221414;1262;22569;-56
2022/08/04 12:39:23;;;;;;;8.00;4.70;;;27.10;55.30;;;;;;221441;1262;22686;-55
2022/08/04 12:44:34;;;;;;;21.00;5.50;;;27.20;55.80;;;;;;221473;1262;24242;-55
2022/08/04 12:49:43;;;;;;;7.30;4.10;;;27.30;61.10;;;;;;221276;1262;22535;-54
2022/08/04 12:55:04;;;;;;;9.70;4.10;;;27.30;60.20;;;;;;221431;1262;22610;-57
2022/08/04 13:00:10;;;;;;;9.20;4.30;;;27.40;56.40;;;;;;221305;1262;24209;-53
2022/08/04 13:05:13;;;;;;;7.90;4.20;;;27.40;56.90;;;;;;221517;1262;25243;-55
2022/08/04 13:10:21;;;;;;;10.30;4.10;;;27.50;56.80;;;;;;221499;1262;22640;-57
2022/08/04 13:15:38;;;;;;;6.10;4.00;;;27.40;56.90;;;;;;221595;1262;23903;-54
2022/08/04 13:21:22;;;;;;;7.40;4.10;;;26.90;56.50;;;;;;221188;1262;25351;-56
2022/08/04 13:26:57;;;;;;;7.30;4.20;;;26.60;55.40;;;;;;221432;1262;24201;-54
2022/08/04 13:32:07;;;;;;;6.10;4.10;;;26.50;56.40;;;;;;221564;1262;26613;-53
2022/08/04 13:37:14;;;;;;;5.30;4.30;;;26.40;57.00;;;;;;221249;1262;24217;-56
2022/08/04 13:42:27;;;;;;;9.70;4.10;;;26.40;60.10;;;;;;221344;1262;23896;-55
2022/08/04 13:47:36;;;;;;;6.40;3.70;;;26.40;60.30;;;;;;221294;1265;24236;-54
2022/08/04 13:52:41;;;;;;;5.90;4.10;;;26.30;60.20;;;;;;221314;1265;22655;-55
2022/08/04 13:57:46;;;;;;;5.70;4.20;;;26.30;58.60;;;;;;221189;1265;22531;-54
2022/08/04 14:02:58;;;;;;;5.10;4.00;;;26.20;56.30;;;;;;221499;1262;22548;-53
2022/08/04 14:08:14;;;;;;;9.30;4.80;;;26.20;57.60;;;;;;220715;1262;22662;-53
2022/08/04 14:13:30;;;;;;;5.50;4.40;;;26.20;58.90;;;;;;221094;1262;22528;-54
2022/08/04 14:19:01;;;;;;;5.40;4.10;;;26.20;60.60;;;;;;221339;1263;22518;-59
2022/08/04 14:24:06;;;;;;;7.30;4.40;;;26.10;60.70;;;;;;221434;1262;24182;-55
2022/08/04 14:29:38;;;;;;;9.10;3.90;;;26.10;60.30;;;;;;221446;1262;24906;-54
2022/08/04 14:34:55;;;;;;;6.20;4.30;;;26.00;60.00;;;;;;221455;1262;24245;-55
2022/08/04 14:39:57;;;;;;;4.40;3.70;;;26.00;59.10;;;;;;221439;1262;22542;-53
2022/08/04 14:45:32;;;;;;;6.70;3.90;;;26.00;56.40;;;;;;221577;1262;25343;-55
2022/08/04 14:50:39;;;;;;;6.00;3.70;;;26.00;57.10;;;;;;221059;1265;22661;-54
2022/08/04 14:55:45;;;;;;;6.30;4.10;;;25.90;57.90;;;;;;221196;1262;25156;-56
2022/08/04 15:00:48;;;;;;;34.00;20.20;;;26.20;58.30;;;;;;221067;1262;23147;-52
2022/08/04 15:05:51;;;;;;;50.40;26.20;;;26.60;58.30;;;;;;221174;1265;25445;-56
2022/08/04 15:11:06;;;;;;;108.80;51.50;;;26.70;58.10;;;;;;221158;1262;24200;-54
2022/08/04 15:16:11;;;;;;;71.10;32.40;;;26.80;58.60;;;;;;220971;1265;25309;-61
2022/08/04 15:21:15;;;;;;;47.70;22.90;;;26.90;58.80;;;;;;221257;1265;25241;-57
2022/08/04 15:26:26;;;;;;;36.70;15.60;;;26.90;58.30;;;;;;221418;1262;22643;-54
2022/08/04 15:31:36;;;;;;;25.20;11.10;;;27.00;58.50;;;;;;221493;1262;25243;-55
2022/08/04 15:37:05;;;;;;;20.40;11.20;;;27.00;57.80;;;;;;221187;1262;24108;-55
2022/08/04 15:42:20;;;;;;;19.20;9.50;;;27.00;57.80;;;;;;221278;1265;24649;-57
2022/08/04 15:47:24;;;;;;;15.90;8.60;;;27.10;57.10;;;;;;221090;1262;22554;-58
2022/08/04 15:52:27;;;;;;;11.20;6.00;;;27.10;56.80;;;;;;221122;1265;22553;-56
2022/08/04 15:58:05;;;;;;;9.70;6.40;;;27.10;57.40;;;;;;221356;1265;22561;-54
2022/08/04 16:03:33;;;;;;;12.20;6.10;;;26.50;57.10;;;;;;221132;1265;25092;-55
2022/08/04 16:09:00;;;;;;;10.50;6.40;;;26.70;57.50;;;;;;221248;1262;25515;-57
2022/08/04 16:14:04;;;;;;;6.10;4.30;;;26.90;56.00;;;;;;221249;1263;22555;-57
2022/08/04 16:19:39;;;;;;;7.00;4.90;;;27.00;55.90;;;;;;221177;1262;23598;-57
2022/08/04 16:24:42;;;;;;;11.10;5.60;;;27.10;56.00;;;;;;221149;1262;23889;-55
2022/08/04 16:29:48;;;;;;;7.40;4.70;;;27.10;56.30;;;;;;221398;1262;22534;-57
2022/08/04 16:35:02;;;;;;;8.50;5.10;;;27.10;56.00;;;;;;221105;1265;24377;-57
2022/08/04 16:40:28;;;;;;;5.90;4.40;;;27.10;56.40;;;;;;221452;1262;22563;-57
2022/08/04 16:45:43;;;;;;;6.50;4.60;;;27.10;56.10;;;;;;221429;1262;22549;-56
2022/08/04 16:50:48;;;;;;;8.20;3.90;;;27.20;56.20;;;;;;221453;1262;24411;-55
2022/08/04 16:55:53;;;;;;;7.00;4.00;;;27.20;56.10;;;;;;220188;1263;1693892;-55
2022/08/04 17:00:56;;;;;;;5.20;3.90;;;27.20;56.50;;;;;;221128;1265;22548;-58
2022/08/04 17:06:10;;;;;;;5.70;4.20;;;27.20;56.10;;;;;;221397;1265;22538;-58
2022/08/04 17:11:14;;;;;;;5.90;4.20;;;27.20;56.00;;;;;;221275;1265;25360;-57
2022/08/04 17:16:19;;;;;;;5.00;4.20;;;27.20;56.00;;;;;;221189;1266;25188;-57
2022/08/04 17:21:25;;;;;;;5.10;4.40;;;27.20;56.00;;;;;;221506;1262;22732;-60
2022/08/04 17:26:38;;;;;;;5.00;3.90;;;27.30;56.20;;;;;;221570;1265;22702;-56
2022/08/04 17:31:42;;;;;;;4.30;3.70;;;27.20;56.00;;;;;;221384;1263;24272;-56
2022/08/04 17:36:45;;;;;;;4.80;3.90;;;27.20;56.00;;;;;;221519;1265;23933;-54
2022/08/04 17:41:56;;;;;;;5.00;4.10;;;27.20;56.30;;;;;;221390;1263;22666;-53
2022/08/04 17:47:08;;;;;;;4.50;3.90;;;27.20;56.40;;;;;;221183;1262;22547;-56
2022/08/04 17:52:20;;;;;;;4.40;3.80;;;27.20;56.10;;;;;;221542;1265;22551;-56
2022/08/04 17:57:44;;;;;;;4.60;3.90;;;27.20;56.10;;;;;;221483;1265;25345;-56
2022/08/04 18:03:21;;;;;;;6.10;4.50;;;27.20;56.50;;;;;;221347;1265;24289;-56
2022/08/04 18:08:25;;;;;;;4.70;3.80;;;27.20;56.20;;;;;;221344;1264;24208;-58
2022/08/04 18:13:55;;;;;;;4.90;4.20;;;27.20;56.10;;;;;;221252;1265;22698;-56
2022/08/04 18:19:15;;;;;;;5.10;3.60;;;27.20;56.10;;;;;;221275;1265;22558;-58
2022/08/04 18:24:21;;;;;;;5.20;3.90;;;27.20;55.90;;;;;;221453;1265;22567;-59
2022/08/04 18:29:39;;;;;;;4.70;3.70;;;27.20;56.00;;;;;;221289;1265;22638;-57
2022/08/04 18:35:06;;;;;;;5.90;4.10;;;27.20;56.00;;;;;;221348;1267;22544;-58
2022/08/04 18:40:18;;;;;;;4.50;3.60;;;27.20;56.10;;;;;;221172;1265;23090;-59
2022/08/04 18:45:38;;;;;;;5.90;3.90;;;27.20;56.10;;;;;;221434;1265;25411;-56
2022/08/04 18:50:41;;;;;;;6.10;4.20;;;27.20;56.20;;;;;;221257;1265;22628;-57
2022/08/04 18:56:04;;;;;;;4.50;3.50;;;27.20;56.30;;;;;;221515;1265;25222;-57
2022/08/04 19:01:34;;;;;;;4.20;3.80;;;27.20;56.20;;;;;;221513;1266;25352;-56
2022/08/04 19:07:00;;;;;;;7.10;4.00;;;27.20;56.20;;;;;;221160;1265;25365;-57
2022/08/04 19:12:26;;;;;;;4.00;3.50;;;27.20;56.50;;;;;;221203;1265;23905;-58
2022/08/04 19:17:33;;;;;;;5.00;4.10;;;27.20;56.50;;;;;;221338;1265;23939;-57
2022/08/04 19:22:56;;;;;;;5.80;4.10;;;27.20;56.30;;;;;;221340;1265;22555;-56
2022/08/04 19:28:18;;;;;;;6.20;3.80;;;27.20;56.10;;;;;;221486;1265;24436;-57
2022/08/04 19:33:27;;;;;;;6.40;4.40;;;27.20;56.00;;;;;;221306;1265;24317;-60
2022/08/04 19:38:57;;;;;;;4.30;3.70;;;27.20;55.80;;;;;;221401;1265;24239;-56
2022/08/04 19:44:05;;;;;;;4.60;4.00;;;27.20;55.80;;;;;;221397;1265;22528;-57
2022/08/04 19:49:07;;;;;;;4.10;3.70;;;27.20;55.80;;;;;;221253;1265;25309;-58
2022/08/04 19:54:31;;;;;;;4.10;3.70;;;27.20;55.90;;;;;;221137;1265;22988;-58
2022/08/04 19:59:36;;;;;;;6.30;4.40;;;27.20;55.80;;;;;;221612;1265;22800;-57
2022/08/04 20:04:56;;;;;;;4.50;3.90;;;27.20;55.80;;;;;;221448;1261;22528;-56
2022/08/04 20:10:07;;;;;;;5.90;3.90;;;27.20;55.90;;;;;;221645;1265;23049;-57
2022/08/04 20:15:22;;;;;;;4.60;4.00;;;27.20;55.80;;;;;;221698;1264;22532;-57
2022/08/04 20:20:28;;;;;;;4.80;3.80;;;27.20;55.80;;;;;;221584;1262;23008;-57
2022/08/04 20:25:43;;;;;;;5.70;4.30;;;27.20;55.80;;;;;;221246;1265;22544;-58
2022/08/04 20:30:53;;;;;;;5.00;4.00;;;27.20;55.80;;;;;;221297;1265;22552;-58
2022/08/04 20:35:59;;;;;;;5.30;4.20;;;27.20;55.80;;;;;;221152;1265;24305;-58
2022/08/04 20:41:08;;;;;;;4.50;3.80;;;27.20;55.80;;;;;;221373;1267;24276;-57
2022/08/04 20:46:12;;;;;;;5.30;4.20;;;27.20;55.80;;;;;;221350;1265;25278;-57
2022/08/04 20:51:38;;;;;;;5.00;4.00;;;27.20;55.80;;;;;;221369;1265;24063;-57
2022/08/04 20:56:45;;;;;;;6.10;4.40;;;27.20;56.20;;;;;;221448;1262;22535;-57
2022/08/04 21:01:52;;;;;;;6.80;4.50;;;27.10;55.90;;;;;;221395;1261;24280;-58
2022/08/04 21:06:57;;;;;;;5.70;4.10;;;27.20;55.90;;;;;;221575;1262;22554;-56
2022/08/04 21:11:59;;;;;;;4.60;4.10;;;27.20;56.00;;;;;;221616;1262;24217;-58
2022/08/04 21:17:01;;;;;;;4.90;4.00;;;27.20;56.00;;;;;;221147;1261;25296;-59
2022/08/04 21:22:07;;;;;;;5.70;4.10;;;27.20;55.90;;;;;;221533;1262;22546;-58
2022/08/04 21:27:17;;;;;;;5.70;4.50;;;27.10;55.90;;;;;;221508;1262;24419;-57
2022/08/04 21:32:21;;;;;;;7.60;4.40;;;27.10;55.90;;;;;;221496;1262;22548;-57
2022/08/04 21:37:28;;;;;;;4.70;4.20;;;27.10;55.90;;;;;;221532;1261;22621;-58
2022/08/04 21:42:56;;;;;;;5.20;4.00;;;27.10;56.30;;;;;;221545;1262;22780;-55
2022/08/04 21:48:01;;;;;;;4.40;4.00;;;27.10;56.00;;;;;;221795;1262;24363;-57
2022/08/04 21:53:06;;;;;;;5.50;4.10;;;27.10;56.30;;;;;;221609;1262;23067;-54
2022/08/04 21:58:08;;;;;;;5.50;4.60;;;27.10;56.00;;;;;;221685;1264;22566;-57
2022/08/04 22:03:14;;;;;;;6.50;4.70;;;27.10;56.00;;;;;;221418;1263;25344;-57
2022/08/04 22:08:40;;;;;;;5.10;4.30;;;27.10;55.90;;;;;;221395;1265;22547;-55
2022/08/04 22:13:52;;;;;;;5.70;4.50;;;27.10;56.10;;;;;;221283;1262;23963;-53
2022/08/04 22:19:13;;;;;;;6.20;3.90;;;27.10;56.60;;;;;;221418;1264;24208;-59
2022/08/04 22:24:15;;;;;;;8.00;4.90;;;27.10;56.50;;;;;;221433;1262;22544;-56
2022/08/04 22:29:18;;;;;;;11.00;5.30;;;27.10;56.80;;;;;;221142;1265;22547;-56
2022/08/04 22:34:20;;;;;;;5.90;4.70;;;27.10;56.80;;;;;;221359;1262;25358;-55
2022/08/04 22:39:25;;;;;;;6.20;4.50;;;27.10;57.50;;;;;;220970;1265;22541;-56
2022/08/04 22:44:29;;;;;;;5.20;4.50;;;27.20;57.10;;;;;;221373;1262;25228;-60
2022/08/04 22:49:36;;;;;;;6.50;4.40;;;27.20;57.00;;;;;;221236;1262;22548;-58
2022/08/04 22:54:39;;;;;;;5.10;4.20;;;27.20;56.90;;;;;;221421;1265;22573;-61
2022/08/04 22:59:42;;;;;;;4.70;4.20;;;27.20;57.00;;;;;;221051;1265;22650;-57
2022/08/04 23:04:45;;;;;;;6.60;4.00;;;27.20;57.30;;;;;;220970;1265;25306;-55
2022/08/04 23:09:52;;;;;;;6.00;4.60;;;27.20;57.00;;;;;;221125;1262;24313;-59
2022/08/04 23:14:58;;;;;;;4.40;4.00;;;27.20;56.90;;;;;;221291;1267;22543;-57
2022/08/04 23:20:01;;;;;;;5.10;4.10;;;27.20;57.00;;;;;;221183;1265;22586;-56
2022/08/04 23:25:04;;;;;;;4.70;4.20;;;27.20;57.00;;;;;;221108;1265;24288;-54
2022/08/04 23:30:07;;;;;;;5.00;4.50;;;27.20;57.00;;;;;;221166;1265;22888;-57
2022/08/04 23:35:09;;;;;;;5.40;4.00;;;27.20;57.10;;;;;;221191;1262;22547;-60
2022/08/04 23:40:11;;;;;;;4.80;4.30;;;27.20;57.00;;;;;;221031;1265;25359;-57
2022/08/04 23:45:33;;;;;;;5.00;4.50;;;27.20;57.00;;;;;;221081;1263;22534;-59
2022/08/04 23:51:12;;;;;;;5.10;4.40;;;27.20;57.00;;;;;;221182;1265;23897;-54
2022/08/04 23:56:16;;;;;;;5.10;4.10;;;27.20;57.30;;;;;;221201;1265;23171;-55
